Time;durP1;ratioP1;P1;durP2;ratioP2;P2;SDS_P1;SDS_P2;PMS_P1;PMS_P2;Temp;Humidity;BMP_temperature;BMP_pressure;BME280_temperature;BME280_humidity;BME280_pressure;Samples;Min_cycle;Max_cycle;Signal;HPM_P1;HPM_P2
2022/11/23 00:00:55;;;;;;;0.20;0.10;;;;;;;;;;5011090;28;20454;-80
2022/11/23 00:03:21;;;;;;;0.20;0.10;;;;;;;;;;5024850;28;20526;-80
2022/11/23 00:05:47;;;;;;;0.20;0.10;;;;;;;;;;5008430;28;20125;-80
2022/11/23 00:08:13;;;;;;;0.20;0.10;;;;;;;;;;4994026;28;20472;-79
2022/11/23 00:10:39;;;;;;;0.20;0.10;;;;;;;;;;5026846;28;20041;-80
2022/11/23 00:13:06;;;;;;;0.20;0.10;;;;;;;;;;5026952;28;20048;-80
2022/11/23 00:15:32;;;;;;;0.20;0.10;;;;;;;;;;5027223;28;20053;-80
2022/11/23 00:18:01;;;;;;;0.20;0.10;;;;;;;;;;4996673;28;20033;-79
2022/11/23 00:20:27;;;;;;;0.20;0.10;;;;;;;;;;5027042;28;20439;-81
2022/11/23 00:22:53;;;;;;;0.20;0.10;;;;;;;;;;4994754;28;20507;-80
2022/11/23 00:25:19;;;;;;;0.20;0.10;;;;;;;;;;5027752;28;20038;-79
2022/11/23 00:27:45;;;;;;;0.20;0.10;;;;;;;;;;5026729;28;20047;-80
2022/11/23 00:30:11;;;;;;;0.20;0.10;;;;;;;;;;5011068;28;20069;-81
2022/11/23 00:32:37;;;;;;;0.30;0.30;;;;;;;;;;5010534;28;20041;-80
2022/11/23 00:35:04;;;;;;;0.20;0.10;;;;;;;;;;4993342;28;20104;-80
2022/11/23 00:37:30;;;;;;;0.20;0.10;;;;;;;;;;5029520;28;20056;-80
2022/11/23 00:39:56;;;;;;;0.20;0.10;;;;;;;;;;5032671;28;20633;-80
2022/11/23 00:42:22;;;;;;;0.20;0.10;;;;;;;;;;5010736;28;20506;-80
2022/11/23 00:44:48;;;;;;;0.20;0.10;;;;;;;;;;5028578;28;20341;-80
2022/11/23 00:47:14;;;;;;;0.20;0.10;;;;;;;;;;5028370;28;20034;-82
2022/11/23 00:49:40;;;;;;;0.20;0.10;;;;;;;;;;5011155;28;20041;-82
2022/11/23 00:52:06;;;;;;;0.20;0.10;;;;;;;;;;5007990;28;20041;-78
2022/11/23 00:54:32;;;;;;;0.20;0.10;;;;;;;;;;5013898;28;20101;-80
2022/11/23 00:56:58;;;;;;;0.20;0.10;;;;;;;;;;5028779;28;20621;-80
2022/11/23 00:59:24;;;;;;;0.20;0.10;;;;;;;;;;5027180;28;20046;-80
2022/11/23 01:01:50;;;;;;;0.20;0.10;;;;;;;;;;5024771;28;20139;-79
2022/11/23 01:04:16;;;;;;;0.20;0.10;;;;;;;;;;5027604;28;20492;-79
2022/11/23 01:06:42;;;;;;;0.20;0.10;;;;;;;;;;5027056;28;20056;-81
2022/11/23 01:09:13;;;;;;;0.20;0.10;;;;;;;;;;5029292;28;20041;-79
2022/11/23 01:11:39;;;;;;;0.20;0.10;;;;;;;;;;5011982;28;20823;-81
2022/11/23 01:14:06;;;;;;;0.20;0.10;;;;;;;;;;5026132;28;20091;-80
2022/11/23 01:16:33;;;;;;;0.20;0.10;;;;;;;;;;5027106;28;20148;-79
2022/11/23 01:19:01;;;;;;;1.27;0.43;;;;;;;;;;5025602;28;20037;-81
2022/11/23 01:21:28;;;;;;;0.20;0.10;;;;;;;;;;5028265;28;20204;-80
2022/11/23 01:23:54;;;;;;;0.20;0.10;;;;;;;;;;5012994;28;20511;-81
2022/11/23 01:26:21;;;;;;;0.20;0.10;;;;;;;;;;5027052;28;20412;-79
2022/11/23 01:28:47;;;;;;;0.20;0.10;;;;;;;;;;5012471;28;20053;-80
2022/11/23 01:31:14;;;;;;;0.20;0.10;;;;;;;;;;5027237;28;20049;-80
2022/11/23 01:33:40;;;;;;;0.20;0.10;;;;;;;;;;5028256;28;20423;-81
2022/11/23 01:36:09;;;;;;;0.20;0.10;;;;;;;;;;5027724;28;20041;-81
2022/11/23 01:38:35;;;;;;;0.20;0.10;;;;;;;;;;5028744;28;20060;-81
2022/11/23 01:41:03;;;;;;;0.20;0.10;;;;;;;;;;5028149;28;20045;-81
2022/11/23 01:43:29;;;;;;;0.20;0.10;;;;;;;;;;5023415;28;20030;-82
2022/11/23 01:45:56;;;;;;;0.20;0.10;;;;;;;;;;5021509;28;20091;-80
2022/11/23 01:48:34;;;;;;;0.20;0.10;;;;;;;;;;5022331;28;20051;-81
2022/11/23 01:51:02;;;;;;;0.20;0.10;;;;;;;;;;5005361;28;20037;-81
2022/11/23 01:53:29;;;;;;;0.20;0.10;;;;;;;;;;5022653;28;20037;-81
2022/11/23 01:55:58;;;;;;;0.20;0.10;;;;;;;;;;5020554;28;20979;-82
2022/11/23 01:58:25;;;;;;;0.20;0.10;;;;;;;;;;5021637;28;20119;-80
2022/11/23 02:00:51;;;;;;;0.20;0.10;;;;;;;;;;5016641;28;20053;-81
2022/11/23 02:03:18;;;;;;;0.20;0.10;;;;;;;;;;5031300;28;20037;-80
2022/11/23 02:05:47;;;;;;;0.20;0.10;;;;;;;;;;4983242;28;20037;-81
2022/11/23 02:08:14;;;;;;;0.20;0.10;;;;;;;;;;4999481;28;20041;-80
2022/11/23 02:10:40;;;;;;;0.20;0.10;;;;;;;;;;4998420;28;20307;-80
2022/11/23 02:13:08;;;;;;;0.20;0.10;;;;;;;;;;5015263;28;20045;-80
2022/11/23 02:15:34;;;;;;;0.20;0.10;;;;;;;;;;5015698;28;20052;-80
2022/11/23 02:18:01;;;;;;;0.20;0.10;;;;;;;;;;5000738;28;20038;-82
2022/11/23 02:20:27;;;;;;;0.20;0.10;;;;;;;;;;5004484;28;20663;-82
2022/11/23 02:23:12;;;;;;;0.25;0.20;;;;;;;;;;5016049;28;20416;-79
2022/11/23 02:25:44;;;;;;;0.20;0.10;;;;;;;;;;5016174;28;20450;-79
2022/11/23 02:28:12;;;;;;;0.20;0.20;;;;;;;;;;5003394;28;20038;-81
2022/11/23 02:30:39;;;;;;;0.20;0.10;;;;;;;;;;5022056;28;20120;-80
2022/11/23 02:33:05;;;;;;;0.20;0.10;;;;;;;;;;4988019;28;20495;-80
2022/11/23 02:35:32;;;;;;;0.20;0.10;;;;;;;;;;5019193;28;20132;-80
2022/11/23 02:38:00;;;;;;;0.20;0.10;;;;;;;;;;4986544;28;20044;-80
2022/11/23 02:40:34;;;;;;;0.20;0.10;;;;;;;;;;5021916;28;20052;-79
2022/11/23 02:43:01;;;;;;;0.20;0.10;;;;;;;;;;5018141;28;20044;-79
2022/11/23 02:45:33;;;;;;;0.20;0.10;;;;;;;;;;5001164;28;20574;-79
2022/11/23 02:47:59;;;;;;;0.20;0.13;;;;;;;;;;5020328;28;20049;-79
2022/11/23 02:50:25;;;;;;;0.20;0.10;;;;;;;;;;4999312;28;20045;-80
2022/11/23 02:52:52;;;;;;;0.20;0.10;;;;;;;;;;5001542;28;20488;-80
2022/11/23 02:55:18;;;;;;;0.20;0.10;;;;;;;;;;5001545;28;20492;-80
2022/11/23 02:57:44;;;;;;;0.20;0.10;;;;;;;;;;5004056;28;20511;-79
2022/11/23 03:00:10;;;;;;;0.20;0.10;;;;;;;;;;4986943;28;20518;-78
2022/11/23 03:02:36;;;;;;;0.20;0.10;;;;;;;;;;5001268;28;20112;-78
2022/11/23 03:05:03;;;;;;;0.20;0.10;;;;;;;;;;5001151;28;20411;-81
2022/11/23 03:07:29;;;;;;;0.20;0.10;;;;;;;;;;5001572;28;20037;-79
2022/11/23 03:09:55;;;;;;;0.20;0.10;;;;;;;;;;4987110;28;20495;-79
2022/11/23 03:12:21;;;;;;;0.20;0.10;;;;;;;;;;5014530;28;20656;-79
2022/11/23 03:14:47;;;;;;;0.20;0.10;;;;;;;;;;5017081;28;20407;-78
2022/11/23 03:17:13;;;;;;;0.20;0.10;;;;;;;;;;5019133;28;20496;-80
2022/11/23 03:19:39;;;;;;;0.20;0.10;;;;;;;;;;5021831;28;20041;-79
2022/11/23 03:22:05;;;;;;;0.20;0.10;;;;;;;;;;5017574;28;20044;-79
2022/11/23 03:24:31;;;;;;;0.20;0.10;;;;;;;;;;5023091;28;20073;-80
2022/11/23 03:26:57;;;;;;;0.20;0.10;;;;;;;;;;5004438;28;20183;-79
2022/11/23 03:29:25;;;;;;;0.20;0.10;;;;;;;;;;5017290;28;20037;-79
2022/11/23 03:31:54;;;;;;;0.20;0.10;;;;;;;;;;5016497;28;21076;-80
2022/11/23 03:34:20;;;;;;;0.20;0.10;;;;;;;;;;5019548;28;21845;-80
2022/11/23 03:36:47;;;;;;;0.20;0.10;;;;;;;;;;5017730;28;20069;-80
2022/11/23 03:39:13;;;;;;;0.20;0.10;;;;;;;;;;5017681;28;20407;-79
2022/11/23 03:41:39;;;;;;;0.20;0.10;;;;;;;;;;5019023;28;20487;-80
2022/11/23 03:44:05;;;;;;;0.20;0.10;;;;;;;;;;5022061;28;20037;-81
2022/11/23 03:46:31;;;;;;;0.20;0.10;;;;;;;;;;4991082;28;20531;-81
2022/11/23 03:48:57;;;;;;;0.20;0.10;;;;;;;;;;5007464;28;20042;-81
2022/11/23 03:51:23;;;;;;;0.20;0.10;;;;;;;;;;5005637;28;20049;-79
2022/11/23 03:53:49;;;;;;;0.20;0.15;;;;;;;;;;5022128;28;20135;-81
2022/11/23 03:56:15;;;;;;;0.20;0.10;;;;;;;;;;4989161;28;20048;-81
2022/11/23 03:58:41;;;;;;;0.20;0.10;;;;;;;;;;5019069;28;20390;-80
2022/11/23 04:01:07;;;;;;;0.20;0.10;;;;;;;;;;5023896;28;20120;-81
2022/11/23 04:03:33;;;;;;;0.20;0.10;;;;;;;;;;5021116;28;20069;-80
2022/11/23 04:05:59;;;;;;;0.20;0.10;;;;;;;;;;5023405;28;20504;-82
2022/11/23 04:08:26;;;;;;;0.20;0.10;;;;;;;;;;5022320;28;20044;-80
2022/11/23 04:10:52;;;;;;;0.30;0.20;;;;;;;;;;5023139;28;20045;-80
2022/11/23 04:13:18;;;;;;;0.20;0.10;;;;;;;;;;5005974;28;20045;-81
2022/11/23 04:15:44;;;;;;;0.20;0.10;;;;;;;;;;4989952;28;20502;-80
2022/11/23 04:18:10;;;;;;;0.20;0.10;;;;;;;;;;4985196;28;20472;-81
2022/11/23 04:20:36;;;;;;;0.20;0.10;;;;;;;;;;5002688;28;20077;-80
2022/11/23 04:23:02;;;;;;;0.20;0.10;;;;;;;;;;5021763;28;20037;-80
2022/11/23 04:25:28;;;;;;;0.20;0.10;;;;;;;;;;5005047;28;20045;-82
2022/11/23 04:27:54;;;;;;;0.32;0.32;;;;;;;;;;5021416;28;20045;-78
2022/11/23 04:30:20;;;;;;;0.40;0.40;;;;;;;;;;5003815;28;20033;-79
2022/11/23 04:32:46;;;;;;;0.20;0.20;;;;;;;;;;5020730;28;20049;-81
2022/11/23 04:35:12;;;;;;;0.20;0.10;;;;;;;;;;5021431;28;20044;-80
2022/11/23 04:37:38;;;;;;;0.20;0.10;;;;;;;;;;5019908;28;20048;-81
2022/11/23 04:40:05;;;;;;;0.20;0.10;;;;;;;;;;5018975;28;20048;-79
2022/11/23 04:42:31;;;;;;;0.20;0.20;;;;;;;;;;5005714;28;20034;-80
2022/11/23 04:44:57;;;;;;;2.15;0.65;;;;;;;;;;4985933;28;20049;-80
2022/11/23 04:47:24;;;;;;;0.20;0.10;;;;;;;;;;5004118;28;20049;-80
2022/11/23 04:49:50;;;;;;;0.20;0.10;;;;;;;;;;5021179;28;20038;-80
2022/11/23 04:52:16;;;;;;;0.20;0.10;;;;;;;;;;5020985;28;20057;-77
2022/11/23 04:54:42;;;;;;;0.20;0.10;;;;;;;;;;5022157;28;20128;-80
2022/11/23 04:57:09;;;;;;;0.20;0.10;;;;;;;;;;5026144;28;20044;-80
2022/11/23 04:59:35;;;;;;;0.20;0.10;;;;;;;;;;5022358;28;20111;-80
2022/11/23 05:02:01;;;;;;;0.20;0.08;;;;;;;;;;5023008;28;20246;-81
2022/11/23 05:04:27;;;;;;;0.20;0.10;;;;;;;;;;5026836;28;20060;-80
2022/11/23 05:06:53;;;;;;;0.20;0.10;;;;;;;;;;5026761;28;20049;-80
2022/11/23 05:09:19;;;;;;;0.20;0.10;;;;;;;;;;5024771;28;20140;-80
2022/11/23 05:11:45;;;;;;;0.20;0.10;;;;;;;;;;5008013;28;20512;-79
2022/11/23 05:14:11;;;;;;;0.20;0.10;;;;;;;;;;5025835;28;20610;-79
2022/11/23 05:16:37;;;;;;;0.20;0.10;;;;;;;;;;5005660;28;20495;-80
2022/11/23 05:19:03;;;;;;;0.20;0.10;;;;;;;;;;5022400;28;20036;-81
2022/11/23 05:21:29;;;;;;;0.20;0.10;;;;;;;;;;5016808;22;20408;-76
2022/11/23 05:23:55;;;;;;;0.20;0.10;;;;;;;;;;4981526;28;20049;-75
2022/11/23 05:26:22;;;;;;;0.20;0.10;;;;;;;;;;5004373;28;20060;-75
2022/11/23 05:28:48;;;;;;;0.20;0.10;;;;;;;;;;4989539;28;20045;-76
2022/11/23 05:31:14;;;;;;;0.20;0.10;;;;;;;;;;4989697;28;20041;-75
2022/11/23 05:33:40;;;;;;;0.20;0.10;;;;;;;;;;4992008;28;20034;-75
2022/11/23 05:36:06;;;;;;;0.20;0.10;;;;;;;;;;4988468;28;20392;-75
2022/11/23 05:38:32;;;;;;;0.20;0.10;;;;;;;;;;4989530;28;20046;-75
2022/11/23 05:40:58;;;;;;;0.52;0.30;;;;;;;;;;4991551;28;20049;-76
2022/11/23 05:43:24;;;;;;;0.20;0.10;;;;;;;;;;4973600;28;20084;-76
2022/11/23 05:45:50;;;;;;;0.20;0.10;;;;;;;;;;4974067;28;20188;-76
2022/11/23 05:48:16;;;;;;;0.20;0.10;;;;;;;;;;4976829;28;20037;-76
2022/11/23 05:50:43;;;;;;;0.20;0.10;;;;;;;;;;4990509;28;20124;-76
2022/11/23 05:53:09;;;;;;;0.20;0.10;;;;;;;;;;4990306;28;20033;-76
2022/11/23 05:55:35;;;;;;;0.20;0.10;;;;;;;;;;4973253;28;20053;-76
2022/11/23 05:58:01;;;;;;;0.20;0.10;;;;;;;;;;4989666;28;20046;-76
2022/11/23 06:00:27;;;;;;;0.20;0.10;;;;;;;;;;4974948;28;20042;-76
2022/11/23 06:02:58;;;;;;;0.20;0.10;;;;;;;;;;4985497;28;20454;-77
2022/11/23 06:05:24;;;;;;;0.20;0.10;;;;;;;;;;4989554;28;20064;-76
2022/11/23 06:07:52;;;;;;;0.20;0.10;;;;;;;;;;4976404;28;20057;-76
2022/11/23 06:10:18;;;;;;;0.20;0.10;;;;;;;;;;4990456;28;20069;-76
2022/11/23 06:12:45;;;;;;;0.20;0.10;;;;;;;;;;4990178;28;20069;-76
2022/11/23 06:15:11;;;;;;;0.20;0.10;;;;;;;;;;4989615;28;20042;-76
2022/11/23 06:17:37;;;;;;;0.30;0.30;;;;;;;;;;4985609;28;20054;-76
2022/11/23 06:20:06;;;;;;;0.20;0.10;;;;;;;;;;4978578;28;20042;-76
2022/11/23 06:22:33;;;;;;;0.20;0.10;;;;;;;;;;4979564;28;20049;-77
2022/11/23 06:24:59;;;;;;;0.20;0.10;;;;;;;;;;4991515;28;20467;-77
2022/11/23 06:27:25;;;;;;;0.20;0.10;;;;;;;;;;4981494;28;20412;-77
2022/11/23 06:29:51;;;;;;;0.20;0.10;;;;;;;;;;4995185;28;20535;-76
2022/11/23 06:32:17;;;;;;;0.20;0.10;;;;;;;;;;4998759;28;20038;-76
2022/11/23 06:34:43;;;;;;;0.20;0.10;;;;;;;;;;4997439;28;20138;-76
2022/11/23 06:37:09;;;;;;;0.20;0.10;;;;;;;;;;4981884;28;20069;-76
2022/11/23 06:39:35;;;;;;;0.20;0.10;;;;;;;;;;5001657;28;20051;-76
2022/11/23 06:42:01;;;;;;;0.20;0.10;;;;;;;;;;5002171;28;20042;-76
2022/11/23 06:44:28;;;;;;;0.20;0.10;;;;;;;;;;4981485;28;20049;-77
2022/11/23 06:46:54;;;;;;;0.20;0.10;;;;;;;;;;4992895;28;20054;-77
2022/11/23 06:49:20;;;;;;;0.30;0.10;;;;;;;;;;4979577;28;20039;-77
2022/11/23 06:51:46;;;;;;;0.20;0.10;;;;;;;;;;4979169;28;20065;-77
2022/11/23 06:54:12;;;;;;;0.20;0.10;;;;;;;;;;4978243;28;20488;-77
2022/11/23 06:56:39;;;;;;;0.20;0.10;;;;;;;;;;4977708;28;20064;-77
2022/11/23 06:59:05;;;;;;;0.20;0.10;;;;;;;;;;4982843;28;20045;-77
2022/11/23 07:01:31;;;;;;;0.20;0.10;;;;;;;;;;4980207;28;20336;-77
2022/11/23 07:03:57;;;;;;;0.20;0.10;;;;;;;;;;4998205;28;20444;-76
2022/11/23 07:06:24;;;;;;;0.20;0.10;;;;;;;;;;4978234;28;20064;-76
2022/11/23 07:08:50;;;;;;;0.20;0.10;;;;;;;;;;4998101;28;20338;-77
2022/11/23 07:11:16;;;;;;;0.20;0.10;;;;;;;;;;4995244;28;20034;-77
2022/11/23 07:13:42;;;;;;;0.20;0.10;;;;;;;;;;4982601;28;20047;-78
2022/11/23 07:16:08;;;;;;;0.20;0.10;;;;;;;;;;4994890;28;20327;-77
2022/11/23 07:18:34;;;;;;;0.20;0.10;;;;;;;;;;5001559;28;20041;-77
2022/11/23 07:21:00;;;;;;;0.20;0.10;;;;;;;;;;4995196;28;20424;-77
2022/11/23 07:23:27;;;;;;;0.20;0.10;;;;;;;;;;4992993;28;20553;-76
2022/11/23 07:25:53;;;;;;;0.20;0.10;;;;;;;;;;4994842;28;20092;-76
2022/11/23 07:28:19;;;;;;;0.20;0.10;;;;;;;;;;4968338;28;20033;-76
2022/11/23 07:30:45;;;;;;;0.20;0.10;;;;;;;;;;4994781;28;20592;-77
2022/11/23 07:33:11;;;;;;;0.20;0.10;;;;;;;;;;4990056;28;20047;-77
2022/11/23 07:35:39;;;;;;;0.20;0.10;;;;;;;;;;4989724;28;20045;-76
2022/11/23 07:38:06;;;;;;;0.20;0.10;;;;;;;;;;4984685;28;20042;-77
2022/11/23 07:40:34;;;;;;;0.43;0.20;;;;;;;;;;4986861;28;20042;-77
2022/11/23 07:43:00;;;;;;;0.20;0.10;;;;;;;;;;4981582;28;20034;-77
2022/11/23 07:45:27;;;;;;;0.20;0.10;;;;;;;;;;4989459;28;20050;-77
2022/11/23 07:48:13;;;;;;;0.20;0.10;;;;;;;;;;4980651;28;20109;-76
2022/11/23 07:50:39;;;;;;;0.20;0.10;;;;;;;;;;4974463;28;20469;-77
2022/11/23 07:53:06;;;;;;;0.20;0.10;;;;;;;;;;4978126;28;20474;-76
2022/11/23 07:55:32;;;;;;;0.20;0.10;;;;;;;;;;4995425;28;20630;-76
2022/11/23 07:57:59;;;;;;;0.20;0.10;;;;;;;;;;4991707;28;20716;-77
2022/11/23 08:00:26;;;;;;;0.20;0.10;;;;;;;;;;4993131;28;20034;-77
2022/11/23 08:02:52;;;;;;;0.20;0.10;;;;;;;;;;4990886;28;20042;-77
2022/11/23 08:05:18;;;;;;;0.20;0.10;;;;;;;;;;4990877;28;20126;-77
2022/11/23 08:07:44;;;;;;;0.20;0.10;;;;;;;;;;4990401;28;20092;-77
2022/11/23 08:10:11;;;;;;;0.20;0.10;;;;;;;;;;4989578;28;20049;-77
2022/11/23 08:12:37;;;;;;;0.20;0.10;;;;;;;;;;4992181;28;20042;-77
2022/11/23 08:15:03;;;;;;;0.20;0.10;;;;;;;;;;4961698;28;20073;-77
2022/11/23 08:17:29;;;;;;;0.20;0.10;;;;;;;;;;4992418;28;20042;-76
2022/11/23 08:19:55;;;;;;;0.20;0.10;;;;;;;;;;4990848;28;20105;-77
2022/11/23 08:22:21;;;;;;;0.20;0.10;;;;;;;;;;4977063;28;20035;-77
2022/11/23 08:24:48;;;;;;;0.20;0.10;;;;;;;;;;4981539;28;20050;-77
2022/11/23 08:27:14;;;;;;;0.20;0.10;;;;;;;;;;4976422;28;20034;-77
2022/11/23 08:29:40;;;;;;;0.20;0.10;;;;;;;;;;4994741;28;20085;-76
2022/11/23 08:32:06;;;;;;;0.20;0.10;;;;;;;;;;4989767;28;20038;-77
2022/11/23 08:34:32;;;;;;;0.20;0.10;;;;;;;;;;4992142;28;20141;-77
2022/11/23 08:36:58;;;;;;;0.20;0.10;;;;;;;;;;4974440;28;20489;-77
2022/11/23 08:39:24;;;;;;;0.20;0.10;;;;;;;;;;4989455;28;20030;-76
2022/11/23 08:41:50;;;;;;;0.20;0.10;;;;;;;;;;4975159;28;20046;-77
2022/11/23 08:44:16;;;;;;;0.20;0.10;;;;;;;;;;4989338;28;20074;-77
2022/11/23 08:46:42;;;;;;;0.20;0.10;;;;;;;;;;4968936;28;20046;-77
2022/11/23 08:49:08;;;;;;;0.20;0.10;;;;;;;;;;4993094;28;20141;-76
2022/11/23 08:51:36;;;;;;;0.20;0.10;;;;;;;;;;4976607;28;20509;-77
2022/11/23 08:54:02;;;;;;;0.20;0.10;;;;;;;;;;4993626;28;20042;-77
2022/11/23 08:56:28;;;;;;;0.20;0.10;;;;;;;;;;4989995;28;20035;-77
2022/11/23 08:58:54;;;;;;;0.20;0.10;;;;;;;;;;4975360;28;20042;-77
2022/11/23 09:01:20;;;;;;;0.20;0.10;;;;;;;;;;4989404;28;20034;-77
2022/11/23 09:03:46;;;;;;;0.20;0.10;;;;;;;;;;4989167;28;20058;-77
2022/11/23 09:06:12;;;;;;;0.20;0.10;;;;;;;;;;4993821;28;20046;-77
2022/11/23 09:08:38;;;;;;;0.20;0.10;;;;;;;;;;4999385;28;20041;-77
2022/11/23 09:11:05;;;;;;;0.20;0.10;;;;;;;;;;4997400;28;20068;-77
2022/11/23 09:13:31;;;;;;;0.20;0.10;;;;;;;;;;4997841;28;20038;-77
2022/11/23 09:16:01;;;;;;;0.20;0.10;;;;;;;;;;4993750;28;20068;-77
2022/11/23 09:18:29;;;;;;;0.20;0.10;;;;;;;;;;4984491;28;20427;-77
2022/11/23 09:20:55;;;;;;;0.20;0.10;;;;;;;;;;4999035;28;20046;-77
2022/11/23 09:23:21;;;;;;;0.20;0.10;;;;;;;;;;4994340;28;20067;-76
2022/11/23 09:25:48;;;;;;;0.20;0.10;;;;;;;;;;4990787;28;20064;-77
2022/11/23 09:28:15;;;;;;;0.20;0.10;;;;;;;;;;4972286;28;20037;-77
2022/11/23 09:30:42;;;;;;;0.20;0.10;;;;;;;;;;4973854;28;20335;-77
2022/11/23 09:33:08;;;;;;;0.30;0.20;;;;;;;;;;4993862;28;20384;-76
2022/11/23 09:35:34;;;;;;;0.57;0.20;;;;;;;;;;4977538;28;20045;-77
2022/11/23 09:38:00;;;;;;;0.20;0.10;;;;;;;;;;4993758;28;20045;-76
2022/11/23 09:40:29;;;;;;;0.20;0.10;;;;;;;;;;4975297;28;20560;-77
2022/11/23 09:43:05;;;;;;;0.20;0.10;;;;;;;;;;4986886;28;20100;-76
2022/11/23 09:45:45;;;;;;;0.20;0.10;;;;;;;;;;4994895;28;20054;-76
2022/11/23 09:48:23;;;;;;;0.20;0.10;;;;;;;;;;4990112;28;20046;-79
2022/11/23 09:50:52;;;;;;;0.20;0.10;;;;;;;;;;4991099;28;20056;-77
2022/11/23 09:53:23;;;;;;;0.20;0.10;;;;;;;;;;4971664;28;20077;-76
2022/11/23 09:55:51;;;;;;;0.20;0.10;;;;;;;;;;4990158;28;20555;-77
2022/11/23 09:58:19;;;;;;;0.20;0.10;;;;;;;;;;4977507;28;20069;-78
2022/11/23 10:00:50;;;;;;;0.20;0.10;;;;;;;;;;4991326;28;20125;-76
2022/11/23 10:03:17;;;;;;;0.20;0.10;;;;;;;;;;4992292;28;20046;-77
2022/11/23 10:06:03;;;;;;;0.20;0.10;;;;;;;;;;4979369;28;20420;-77
2022/11/23 10:08:30;;;;;;;0.20;0.10;;;;;;;;;;4973096;28;20124;-77
2022/11/23 10:11:17;;;;;;;0.20;0.10;;;;;;;;;;4993065;28;20108;-77
2022/11/23 10:13:45;;;;;;;0.20;0.10;;;;;;;;;;4993694;28;20541;-76
2022/11/23 10:16:14;;;;;;;0.20;0.10;;;;;;;;;;5008048;28;20069;-77
2022/11/23 10:18:59;;;;;;;0.20;0.10;;;;;;;;;;4994385;28;20046;-78
2022/11/23 10:21:25;;;;;;;0.20;0.10;;;;;;;;;;4990056;28;20038;-78
2022/11/23 10:24:09;;;;;;;0.20;0.10;;;;;;;;;;4993188;28;20083;-76
2022/11/23 10:26:38;;;;;;;0.20;0.10;;;;;;;;;;4992013;28;20042;-77
2022/11/23 10:29:19;;;;;;;0.20;0.10;;;;;;;;;;4995587;28;22027;-77
2022/11/23 10:31:48;;;;;;;0.20;0.10;;;;;;;;;;4984182;28;20053;-77
2022/11/23 10:34:21;;;;;;;0.20;0.10;;;;;;;;;;4974847;28;20089;-77
2022/11/23 10:36:47;;;;;;;0.20;0.10;;;;;;;;;;4988242;28;20042;-77
2022/11/23 10:39:20;;;;;;;0.20;0.10;;;;;;;;;;4981869;28;20038;-78
2022/11/23 10:41:46;;;;;;;0.20;0.10;;;;;;;;;;4991100;28;20057;-77
2022/11/23 10:44:20;;;;;;;0.20;0.10;;;;;;;;;;4996531;28;20168;-76
2022/11/23 10:46:46;;;;;;;0.20;0.15;;;;;;;;;;4992434;28;20046;-77
2022/11/23 10:49:23;;;;;;;0.20;0.10;;;;;;;;;;4995222;28;20534;-77
2022/11/23 10:51:51;;;;;;;0.20;0.10;;;;;;;;;;4991400;28;20038;-77
2022/11/23 10:54:20;;;;;;;0.20;0.10;;;;;;;;;;4977562;28;20038;-77
2022/11/23 10:56:50;;;;;;;0.20;0.10;;;;;;;;;;4980678;28;20041;-78
2022/11/23 10:59:26;;;;;;;0.20;0.10;;;;;;;;;;4994589;28;20038;-77
2022/11/23 11:01:59;;;;;;;0.20;0.10;;;;;;;;;;4992208;28;20038;-78
2022/11/23 11:04:25;;;;;;;0.20;0.10;;;;;;;;;;5000533;28;20035;-77
2022/11/23 11:06:51;;;;;;;0.20;0.10;;;;;;;;;;4989259;28;20736;-77
2022/11/23 11:09:19;;;;;;;0.20;0.10;;;;;;;;;;4978512;28;20046;-77
2022/11/23 11:11:47;;;;;;;0.20;0.10;;;;;;;;;;4995424;28;20122;-77
2022/11/23 11:14:18;;;;;;;0.20;0.10;;;;;;;;;;4984420;28;20050;-77
2022/11/23 11:16:51;;;;;;;0.20;0.10;;;;;;;;;;4981921;28;20043;-76
2022/11/23 11:19:21;;;;;;;0.20;0.10;;;;;;;;;;4997507;28;20034;-77
2022/11/23 11:21:47;;;;;;;0.20;0.10;;;;;;;;;;5022606;23;20061;-78
2022/11/23 11:24:25;;;;;;;0.20;0.10;;;;;;;;;;4988865;28;20087;-78
2022/11/23 11:27:17;;;;;;;0.20;0.10;;;;;;;;;;4990413;28;20053;-79
2022/11/23 11:29:43;;;;;;;0.20;0.10;;;;;;;;;;5017224;28;20073;-79
2022/11/23 11:32:09;;;;;;;0.20;0.10;;;;;;;;;;4996920;28;20085;-79
2022/11/23 11:34:41;;;;;;;0.20;0.10;;;;;;;;;;4997240;28;20062;-78
2022/11/23 11:37:26;;;;;;;0.20;0.10;;;;;;;;;;4986040;28;20041;-80
2022/11/23 11:40:19;;;;;;;0.20;0.10;;;;;;;;;;4976336;28;20046;-80
2022/11/23 11:43:05;;;;;;;0.20;0.10;;;;;;;;;;4963292;28;20050;-77
2022/11/23 11:45:36;;;;;;;0.20;0.10;;;;;;;;;;4964288;28;20057;-78
2022/11/23 11:48:14;;;;;;;0.20;0.10;;;;;;;;;;4987098;28;20525;-78
2022/11/23 11:51:03;;;;;;;0.20;0.10;;;;;;;;;;4978098;28;20154;-79
2022/11/23 11:53:36;;;;;;;0.20;0.10;;;;;;;;;;4979640;28;20568;-79
2022/11/23 11:56:28;;;;;;;0.20;0.10;;;;;;;;;;4984202;28;20043;-78
2022/11/23 11:58:57;;;;;;;0.20;0.10;;;;;;;;;;4972588;28;20039;-79
2022/11/23 12:01:35;;;;;;;0.20;0.10;;;;;;;;;;4982644;28;20050;-78
2022/11/23 12:04:06;;;;;;;0.25;0.15;;;;;;;;;;4983554;28;20133;-79
2022/11/23 12:07:05;;;;;;;0.20;0.10;;;;;;;;;;4984075;28;20038;-79
2022/11/23 12:09:34;;;;;;;0.20;0.10;;;;;;;;;;4933072;28;20060;-78
2022/11/23 12:12:00;;;;;;;0.20;0.10;;;;;;;;;;4978456;28;20046;-79
2022/11/23 12:14:26;;;;;;;0.20;0.10;;;;;;;;;;4987118;28;20129;-77
2022/11/23 12:17:04;;;;;;;0.20;0.10;;;;;;;;;;4980614;28;20572;-78
2022/11/23 12:19:38;;;;;;;0.20;0.10;;;;;;;;;;4993721;28;20065;-79
2022/11/23 12:22:14;;;;;;;0.20;0.10;;;;;;;;;;4980060;28;20041;-78
2022/11/23 12:24:49;;;;;;;0.20;0.10;;;;;;;;;;4978349;28;20379;-79
2022/11/23 12:27:24;;;;;;;0.20;0.10;;;;;;;;;;4983378;28;20049;-80
2022/11/23 12:29:58;;;;;;;7.35;0.65;;;;;;;;;;4981276;28;20468;-78
2022/11/23 12:32:33;;;;;;;0.20;0.10;;;;;;;;;;4966439;28;20035;-78
2022/11/23 12:35:15;;;;;;;0.20;0.10;;;;;;;;;;4983919;28;20057;-78
2022/11/23 12:37:41;;;;;;;0.20;0.10;;;;;;;;;;4979567;28;20042;-79
2022/11/23 12:40:07;;;;;;;0.20;0.10;;;;;;;;;;4976328;28;20035;-78
2022/11/23 12:42:33;;;;;;;0.20;0.10;;;;;;;;;;4977425;28;20046;-79
2022/11/23 12:44:59;;;;;;;0.20;0.10;;;;;;;;;;4976621;28;20524;-78
2022/11/23 12:47:38;;;;;;;0.20;0.10;;;;;;;;;;4978656;28;20057;-78
2022/11/23 12:50:23;;;;;;;0.20;0.10;;;;;;;;;;4979680;28;20046;-79
2022/11/23 12:53:04;;;;;;;0.20;0.10;;;;;;;;;;4981754;28;20108;-78
2022/11/23 12:55:33;;;;;;;0.20;0.10;;;;;;;;;;4981929;28;20042;-78
2022/11/23 12:57:59;;;;;;;0.20;0.10;;;;;;;;;;4981488;28;20038;-79
2022/11/23 13:00:26;;;;;;;0.20;0.10;;;;;;;;;;4978102;28;20045;-79
2022/11/23 13:02:52;;;;;;;0.20;0.10;;;;;;;;;;4976846;28;20042;-78
2022/11/23 13:05:37;;;;;;;0.20;0.10;;;;;;;;;;4976951;28;20517;-80
2022/11/23 13:08:22;;;;;;;0.20;0.10;;;;;;;;;;4980872;28;20492;-79
2022/11/23 13:11:00;;;;;;;0.20;0.10;;;;;;;;;;4982305;28;20046;-79
2022/11/23 13:13:32;;;;;;;0.20;0.10;;;;;;;;;;4986634;28;20038;-77
2022/11/23 13:16:10;;;;;;;0.20;0.10;;;;;;;;;;4981596;28;20121;-80
2022/11/23 13:18:43;;;;;;;0.20;0.08;;;;;;;;;;4994636;28;20489;-79
2022/11/23 13:21:27;;;;;;;0.20;0.10;;;;;;;;;;4967155;28;20038;-79
2022/11/23 13:23:54;;;;;;;0.20;0.10;;;;;;;;;;4976358;28;20038;-79
2022/11/23 13:26:27;;;;;;;0.20;0.10;;;;;;;;;;4975013;28;20394;-77
2022/11/23 13:28:55;;;;;;;0.20;0.10;;;;;;;;;;4967322;28;20038;-78
2022/11/23 13:31:26;;;;;;;0.20;0.10;;;;;;;;;;4977567;28;20038;-80
2022/11/23 13:33:56;;;;;;;0.20;0.10;;;;;;;;;;4966059;28;20221;-77
2022/11/23 13:36:29;;;;;;;0.20;0.10;;;;;;;;;;4983409;28;20034;-79
2022/11/23 13:38:55;;;;;;;0.20;0.10;;;;;;;;;;4981000;28;20042;-78
2022/11/23 13:41:33;;;;;;;0.20;0.10;;;;;;;;;;4965970;28;20034;-79
2022/11/23 13:44:18;;;;;;;0.20;0.10;;;;;;;;;;4980400;28;20034;-79
2022/11/23 13:47:03;;;;;;;0.20;0.10;;;;;;;;;;4981965;28;20046;-79
2022/11/23 13:49:43;;;;;;;0.20;0.10;;;;;;;;;;4966068;28;20100;-81
2022/11/23 13:52:22;;;;;;;0.20;0.10;;;;;;;;;;4996430;28;20087;-80
2022/11/23 13:55:03;;;;;;;0.20;0.10;;;;;;;;;;4980555;28;20053;-79
2022/11/23 13:57:29;;;;;;;0.20;0.10;;;;;;;;;;4985489;28;20038;-80
2022/11/23 14:00:14;;;;;;;0.20;0.10;;;;;;;;;;4983101;28;20096;-80
2022/11/23 14:02:40;;;;;;;0.20;0.10;;;;;;;;;;4982505;28;20038;-80
2022/11/23 14:05:30;;;;;;;0.20;0.10;;;;;;;;;;4988875;28;20046;-79
2022/11/23 14:07:56;;;;;;;0.20;0.10;;;;;;;;;;4958279;28;20066;-79
2022/11/23 14:10:23;;;;;;;0.20;0.10;;;;;;;;;;4972671;28;20050;-79
2022/11/23 14:12:54;;;;;;;0.20;0.10;;;;;;;;;;4982240;28;20038;-78
2022/11/23 14:15:20;;;;;;;0.20;0.10;;;;;;;;;;4983537;28;20049;-79
2022/11/23 14:18:04;;;;;;;0.20;0.10;;;;;;;;;;4986062;28;20436;-80
2022/11/23 14:20:39;;;;;;;0.20;0.10;;;;;;;;;;4983580;28;20405;-79
2022/11/23 14:23:24;;;;;;;0.20;0.10;;;;;;;;;;4999067;28;20038;-81
2022/11/23 14:25:50;;;;;;;0.20;0.10;;;;;;;;;;4980375;28;20043;-79
2022/11/23 14:28:16;;;;;;;0.20;0.10;;;;;;;;;;4973200;28;20976;-81
2022/11/23 14:30:52;;;;;;;0.20;0.10;;;;;;;;;;4981963;28;20069;-78
2022/11/23 14:33:25;;;;;;;0.20;0.10;;;;;;;;;;4983340;28;20092;-80
2022/11/23 14:36:08;;;;;;;0.20;0.10;;;;;;;;;;4982924;28;20043;-79
2022/11/23 14:38:42;;;;;;;0.20;0.10;;;;;;;;;;4982795;28;20042;-79
2022/11/23 14:41:23;;;;;;;0.20;0.10;;;;;;;;;;4981020;28;20120;-79
2022/11/23 14:43:49;;;;;;;0.20;0.10;;;;;;;;;;4986396;28;20092;-79
2022/11/23 14:46:20;;;;;;;0.20;0.10;;;;;;;;;;4970480;28;20043;-81
2022/11/23 14:48:46;;;;;;;0.20;0.10;;;;;;;;;;4986018;28;20045;-78
2022/11/23 14:51:14;;;;;;;0.20;0.10;;;;;;;;;;4971716;28;20085;-80
2022/11/23 14:53:41;;;;;;;0.20;0.10;;;;;;;;;;5009353;28;20422;-79